Time;durP1;ratioP1;P1;durP2;ratioP2;P2;SDS_P1;SDS_P2;PMS_P1;PMS_P2;Temp;Humidity;BMP_temperature;BMP_pressure;BME280_temperature;BME280_humidity;BME280_pressure;Samples;Min_cycle;Max_cycle;Signal;HPM_P1;HPM_P2
2021/05/09 00:01:58;;;;;;;5.82;3.88;;;;;;;11.12;70.96;98821.75;5082915;28;20051;-69
2021/05/09 00:04:24;;;;;;;6.68;4.18;;;;;;;11.09;71.04;98821.97;5092555;28;20107;-69
2021/05/09 00:06:49;;;;;;;6.50;4.35;;;;;;;11.05;71.50;98818.69;5084407;28;20043;-68
2021/05/09 00:09:15;;;;;;;7.53;4.18;;;;;;;10.99;71.51;98818.25;5071925;28;20399;-69
2021/05/09 00:11:40;;;;;;;6.75;4.07;;;;;;;11.01;71.14;98811.91;5071833;28;20037;-69
2021/05/09 00:14:06;;;;;;;8.13;4.53;;;;;;;11.03;71.66;98812.66;5072050;28;20507;-69
2021/05/09 00:16:32;;;;;;;5.57;4.15;;;;;;;10.99;71.90;98805.06;5072199;28;20040;-69
2021/05/09 00:18:58;;;;;;;8.48;4.10;;;;;;;11.01;71.66;98801.38;5081840;28;20037;-69
2021/05/09 00:21:23;;;;;;;10.50;5.07;;;;;;;11.02;71.43;98797.78;5079625;28;20396;-69
2021/05/09 00:23:48;;;;;;;6.85;4.28;;;;;;;11.00;71.20;98798.81;5071426;28;20576;-69
2021/05/09 00:26:14;;;;;;;7.82;4.88;;;;;;;10.99;71.07;98797.16;5071368;28;20056;-69
2021/05/09 00:28:40;;;;;;;7.10;3.80;;;;;;;10.95;70.88;98791.22;5072074;28;20616;-69
2021/05/09 00:31:05;;;;;;;5.43;4.22;;;;;;;10.99;71.77;98790.06;5071165;28;20039;-69
2021/05/09 00:33:31;;;;;;;7.63;4.80;;;;;;;10.98;71.82;98787.53;5071762;28;24644;-69
2021/05/09 00:35:56;;;;;;;5.25;3.20;;;;;;;11.00;71.37;98783.00;5071518;28;20488;-69
2021/05/09 00:38:21;;;;;;;8.05;3.53;;;;;;;11.02;71.69;98789.88;5071368;28;20051;-69
2021/05/09 00:40:47;;;;;;;9.40;3.50;;;;;;;11.05;72.43;98784.41;5071105;28;20040;-69
2021/05/09 00:43:14;;;;;;;4.85;3.08;;;;;;;11.14;73.27;98777.66;5071962;28;20077;-69
2021/05/09 00:45:40;;;;;;;6.40;3.97;;;;;;;11.18;71.98;98776.50;5081757;28;20499;-69
2021/05/09 00:48:09;;;;;;;5.15;3.35;;;;;;;11.22;72.71;98772.69;5071020;28;20115;-69
2021/05/09 00:50:35;;;;;;;5.25;3.53;;;;;;;11.29;72.36;98768.69;5049385;28;20053;-68
2021/05/09 00:53:04;;;;;;;7.70;4.45;;;;;;;11.33;72.46;98769.34;5050862;28;20060;-68
2021/05/09 00:55:32;;;;;;;8.98;3.47;;;;;;;11.38;72.91;98760.13;5063046;28;20044;-68
2021/05/09 00:57:58;;;;;;;6.45;2.80;;;;;;;11.46;72.25;98756.13;5070917;28;20555;-68
2021/05/09 01:00:25;;;;;;;6.47;2.90;;;;;;;11.55;72.87;98748.41;5049617;28;20021;-70
2021/05/09 01:02:50;;;;;;;6.60;3.53;;;;;;;11.64;72.64;98748.72;5052621;28;20519;-69
2021/05/09 01:05:16;;;;;;;5.25;3.10;;;;;;;11.67;72.32;98746.72;5067656;28;20040;-69
2021/05/09 01:07:42;;;;;;;5.05;3.33;;;;;;;11.72;71.51;98749.88;5070127;28;20365;-68
2021/05/09 01:10:10;;;;;;;7.57;3.63;;;;;;;11.74;71.70;98747.09;5062008;28;20035;-68
2021/05/09 01:12:35;;;;;;;4.80;2.35;;;;;;;11.74;71.61;98739.19;5068981;28;20094;-67
2021/05/09 01:15:02;;;;;;;4.38;2.38;;;;;;;11.78;71.91;98740.66;5070014;28;20024;-69
2021/05/09 01:17:28;;;;;;;5.65;2.97;;;;;;;11.80;71.05;98731.69;5069969;28;20541;-68
2021/05/09 01:19:53;;;;;;;4.68;2.85;;;;;;;11.76;70.84;98732.88;5084041;28;20032;-69
2021/05/09 01:22:19;;;;;;;4.35;3.35;;;;;;;11.73;71.25;98732.22;5070404;28;20108;-68
2021/05/09 01:24:44;;;;;;;5.68;3.45;;;;;;;11.71;70.75;98731.50;5070104;28;20043;-68
2021/05/09 01:27:09;;;;;;;6.53;2.72;;;;;;;11.62;71.37;98725.09;5069941;28;20516;-69
2021/05/09 01:29:35;;;;;;;8.38;3.50;;;;;;;11.58;71.34;98726.25;5070297;28;20063;-68
2021/05/09 01:32:05;;;;;;;3.60;3.10;;;;;;;11.55;72.40;98721.19;5075740;28;20415;-69
2021/05/09 01:34:35;;;;;;;3.67;2.55;;;;;;;11.48;71.04;98718.13;5062934;28;20037;-69
2021/05/09 01:37:02;;;;;;;4.63;2.85;;;;;;;11.46;71.63;98712.09;5040862;28;20041;-68
2021/05/09 01:39:27;;;;;;;3.53;2.70;;;;;;;11.46;71.54;98716.53;5049830;28;20032;-70
2021/05/09 01:41:52;;;;;;;5.50;3.13;;;;;;;11.42;71.39;98709.78;5067030;28;20403;-69
2021/05/09 01:44:18;;;;;;;8.68;3.67;;;;;;;11.37;71.59;98704.81;5070391;28;20085;-70
2021/05/09 01:46:43;;;;;;;8.30;2.78;;;;;;;11.31;71.89;98705.25;5069844;28;20032;-69
2021/05/09 01:49:08;;;;;;;4.30;2.42;;;;;;;11.29;72.16;98697.44;5069296;28;20040;-69
2021/05/09 01:51:34;;;;;;;5.68;3.00;;;;;;;11.26;72.46;98689.75;5069605;28;20487;-69
2021/05/09 01:53:59;;;;;;;4.82;3.33;;;;;;;11.21;71.81;98688.38;5069501;28;20516;-70
2021/05/09 01:56:24;;;;;;;6.32;4.15;;;;;;;11.14;72.81;98691.44;5069688;28;20055;-70
2021/05/09 01:58:50;;;;;;;7.28;2.97;;;;;;;11.07;72.08;98681.41;5052339;28;20037;-70
2021/05/09 02:01:15;;;;;;;6.15;3.42;;;;;;;11.02;72.24;98675.63;5069812;28;20037;-70
2021/05/09 02:03:40;;;;;;;4.70;2.70;;;;;;;10.98;72.66;98661.81;5070077;28;20036;-69
2021/05/09 02:06:06;;;;;;;7.03;3.28;;;;;;;11.00;72.55;98678.38;5069375;28;20051;-68
2021/05/09 02:08:31;;;;;;;10.18;3.70;;;;;;;10.96;73.32;98671.63;5068168;28;20487;-70
2021/05/09 02:10:57;;;;;;;5.35;3.70;;;;;;;10.93;72.63;98677.94;5069664;28;20123;-70
2021/05/09 02:13:22;;;;;;;3.55;2.58;;;;;;;10.93;72.31;98672.69;5051488;28;20036;-69
2021/05/09 02:15:48;;;;;;;5.85;3.10;;;;;;;10.93;73.17;98666.56;5055197;28;20040;-69
2021/05/09 02:18:13;;;;;;;5.65;3.00;;;;;;;10.94;73.70;98655.91;5069597;28;20442;-69
2021/05/09 02:20:38;;;;;;;5.30;3.50;;;;;;;10.91;73.53;98668.47;5069201;28;20391;-70
2021/05/09 02:23:04;;;;;;;4.85;2.97;;;;;;;10.96;73.93;98656.63;5051184;28;20044;-69
2021/05/09 02:25:29;;;;;;;4.70;3.22;;;;;;;11.03;73.11;98656.22;5067730;28;20032;-70
2021/05/09 02:27:54;;;;;;;6.63;3.08;;;;;;;11.05;73.42;98654.31;5069135;28;20093;-69
2021/05/09 02:30:20;;;;;;;4.20;2.97;;;;;;;11.09;72.79;98650.50;5068569;28;20032;-70
2021/05/09 02:32:46;;;;;;;3.97;2.22;;;;;;;11.15;72.97;98644.81;5051281;28;20392;-68
2021/05/09 02:35:11;;;;;;;3.67;2.72;;;;;;;11.19;72.93;98646.28;5067216;28;20036;-69
2021/05/09 02:37:37;;;;;;;3.28;2.33;;;;;;;11.30;73.05;98642.91;5068709;28;20036;-69
2021/05/09 02:40:05;;;;;;;4.40;2.83;;;;;;;11.44;72.55;98634.81;5059826;28;20061;-68
2021/05/09 02:42:30;;;;;;;6.60;2.72;;;;;;;11.60;71.63;98640.72;5068517;28;20094;-68
2021/05/09 02:44:56;;;;;;;6.97;3.17;;;;;;;11.77;70.93;98628.94;5069272;28;20036;-70
2021/05/09 02:47:30;;;;;;;3.92;2.58;;;;;;;11.90;70.05;98628.06;5068774;28;20119;-63
2021/05/09 02:50:02;;;;;;;4.57;2.57;;;;;;;12.09;70.29;98627.56;5068980;28;20040;-63
2021/05/09 02:52:27;;;;;;;3.28;2.28;;;;;;;12.22;69.09;98626.53;5068709;28;20533;-63
2021/05/09 02:54:53;;;;;;;6.85;2.58;;;;;;;12.32;68.67;98623.19;5069203;28;20064;-62
2021/05/09 02:57:18;;;;;;;4.45;2.10;;;;;;;12.46;67.78;98620.38;5069151;28;20029;-63
2021/05/09 02:59:44;;;;;;;8.13;3.22;;;;;;;12.55;67.53;98617.03;5071026;28;20040;-63
2021/05/09 03:02:09;;;;;;;6.43;2.47;;;;;;;12.59;67.51;98615.81;5072170;28;20052;-63
2021/05/09 03:04:35;;;;;;;6.05;2.35;;;;;;;12.61;67.09;98608.63;5074095;28;20100;-60
2021/05/09 03:07:00;;;;;;;4.18;2.17;;;;;;;12.63;66.99;98609.34;5074699;28;20475;-68
2021/05/09 03:09:26;;;;;;;3.25;2.20;;;;;;;12.64;65.79;98610.19;5070913;28;20123;-70
2021/05/09 03:11:51;;;;;;;3.85;2.20;;;;;;;12.67;66.10;98602.88;5071127;28;20039;-70
2021/05/09 03:14:17;;;;;;;3.63;2.40;;;;;;;12.71;65.42;98607.91;5051575;28;20036;-70
2021/05/09 03:16:43;;;;;;;3.75;2.33;;;;;;;12.72;65.06;98606.94;5052218;28;20135;-71
2021/05/09 03:19:08;;;;;;;3.30;2.28;;;;;;;12.70;64.57;98601.78;5062488;28;20025;-70
2021/05/09 03:21:34;;;;;;;2.67;2.20;;;;;;;12.68;64.80;98614.28;5070903;28;20047;-70
2021/05/09 03:23:59;;;;;;;2.95;1.98;;;;;;;12.64;65.38;98618.94;5070365;28;20028;-70
2021/05/09 03:26:25;;;;;;;5.15;2.85;;;;;;;12.59;65.87;98613.16;5072263;28;20040;-70
2021/05/09 03:28:50;;;;;;;6.50;2.05;;;;;;;12.52;65.59;98613.75;5073514;28;20041;-70
2021/05/09 03:31:15;;;;;;;3.45;2.15;;;;;;;12.46;65.83;98613.25;5072359;28;20040;-70
2021/05/09 03:33:41;;;;;;;4.35;2.85;;;;;;;12.40;65.94;98612.88;5072163;28;20052;-70
2021/05/09 03:36:06;;;;;;;3.47;2.03;;;;;;;12.31;65.95;98611.78;5071937;28;20120;-69
2021/05/09 03:38:31;;;;;;;3.50;2.50;;;;;;;12.24;66.49;98602.63;5072720;28;20048;-69
2021/05/09 03:40:57;;;;;;;10.10;3.20;;;;;;;12.18;65.84;98598.66;5072887;28;20029;-69
2021/05/09 03:43:22;;;;;;;4.18;2.88;;;;;;;12.13;66.37;98595.50;5074044;28;20598;-69
2021/05/09 03:45:47;;;;;;;5.45;2.85;;;;;;;12.09;66.25;98598.50;5073549;28;20506;-69
2021/05/09 03:48:13;;;;;;;5.00;3.03;;;;;;;12.02;66.73;98596.31;5072215;28;20036;-68
2021/05/09 03:50:38;;;;;;;8.57;2.60;;;;;;;11.95;66.58;98599.50;5072784;28;20060;-70
2021/05/09 03:53:03;;;;;;;4.72;2.97;;;;;;;11.86;66.84;98594.88;5072206;28;20043;-69
2021/05/09 03:55:29;;;;;;;4.97;2.75;;;;;;;11.80;67.28;98586.44;5072104;28;20067;-70
2021/05/09 03:57:55;;;;;;;6.43;2.90;;;;;;;11.68;67.94;98586.50;5071769;28;20430;-70
2021/05/09 04:00:20;;;;;;;3.88;2.28;;;;;;;11.60;67.63;98587.06;5071458;28;20025;-70
2021/05/09 04:02:46;;;;;;;4.57;2.55;;;;;;;11.57;67.68;98587.31;5071724;28;20392;-70
2021/05/09 04:05:13;;;;;;;4.40;2.75;;;;;;;11.48;68.22;98587.97;5072179;28;20040;-70
2021/05/09 04:07:38;;;;;;;4.25;3.40;;;;;;;11.43;68.85;98587.44;5077411;28;20025;-70
2021/05/09 04:10:05;;;;;;;5.70;2.22;;;;;;;11.35;68.57;98583.56;5088034;28;20036;-70
2021/05/09 04:12:30;;;;;;;4.97;2.33;;;;;;;11.31;68.11;98578.63;5078987;28;20082;-72
2021/05/09 04:14:55;;;;;;;5.72;2.50;;;;;;;11.28;68.15;98573.56;5074496;28;20032;-71
2021/05/09 04:17:21;;;;;;;4.25;2.60;;;;;;;11.22;68.25;98574.81;5074607;28;20051;-70
2021/05/09 04:19:46;;;;;;;4.20;2.65;;;;;;;11.19;68.59;98572.41;5074762;28;20051;-70
2021/05/09 04:22:11;;;;;;;7.22;3.65;;;;;;;11.16;68.70;98572.63;5073535;28;20124;-70
2021/05/09 04:24:37;;;;;;;3.88;2.53;;;;;;;11.09;68.78;98568.75;5072529;28;20040;-70
2021/05/09 04:27:02;;;;;;;5.40;3.00;;;;;;;11.04;68.73;98568.22;5071837;28;20033;-70
2021/05/09 04:29:28;;;;;;;3.75;2.92;;;;;;;11.03;69.16;98564.75;5071648;28;20040;-70
2021/05/09 04:31:53;;;;;;;4.72;2.78;;;;;;;11.09;68.97;98569.59;5071582;28;20094;-70
2021/05/09 04:34:18;;;;;;;4.65;2.85;;;;;;;11.11;68.55;98574.75;5072220;28;20028;-69
2021/05/09 04:36:44;;;;;;;4.55;2.90;;;;;;;11.09;68.57;98574.03;5071183;28;20032;-70
2021/05/09 04:39:09;;;;;;;5.75;2.70;;;;;;;11.03;68.75;98562.13;5071482;28;20541;-70
2021/05/09 04:41:34;;;;;;;5.53;3.40;;;;;;;11.08;68.73;98567.06;5071458;28;20116;-69
2021/05/09 04:44:00;;;;;;;4.93;2.60;;;;;;;11.09;69.09;98566.09;5071254;28;20085;-69
2021/05/09 04:46:26;;;;;;;3.33;2.42;;;;;;;11.20;69.13;98563.56;5089901;28;20028;-70
2021/05/09 04:48:51;;;;;;;4.68;2.63;;;;;;;11.41;67.93;98563.81;5092074;28;20167;-70
2021/05/09 04:51:16;;;;;;;3.00;2.20;;;;;;;11.58;68.05;98568.69;5091422;28;20048;-70
2021/05/09 04:53:42;;;;;;;4.82;2.30;;;;;;;11.78;67.25;98556.66;5091458;28;20024;-70
2021/05/09 04:56:08;;;;;;;5.70;3.15;;;;;;;11.90;66.73;98562.88;5091279;28;20122;-70
2021/05/09 04:58:39;;;;;;;6.47;2.95;;;;;;;12.09;66.27;98559.72;5091655;28;20032;-70
2021/05/09 05:01:06;;;;;;;6.05;3.50;;;;;;;12.21;66.13;98556.16;5091247;28;20032;-70
2021/05/09 05:03:32;;;;;;;5.88;2.28;;;;;;;12.40;65.69;98546.81;5091459;28;20039;-69
2021/05/09 05:05:58;;;;;;;5.22;2.17;;;;;;;12.49;65.98;98548.75;5080618;28;20036;-70
2021/05/09 05:08:24;;;;;;;3.20;2.17;;;;;;;12.64;65.57;98544.06;5071378;28;20040;-70
2021/05/09 05:10:50;;;;;;;3.88;2.58;;;;;;;12.80;64.72;98549.03;5071797;28;20036;-70
2021/05/09 05:13:21;;;;;;;6.05;2.35;;;;;;;13.05;64.41;98535.53;5092148;28;20418;-69
2021/05/09 05:15:48;;;;;;;5.30;2.53;;;;;;;13.29;63.67;98539.84;5091037;28;20221;-71
2021/05/09 05:18:14;;;;;;;3.38;2.78;;;;;;;13.55;62.99;98543.03;5091080;28;20119;-69
2021/05/09 05:20:40;;;;;;;6.07;2.38;;;;;;;13.78;62.45;98533.19;5073632;28;20051;-68
2021/05/09 05:23:05;;;;;;;3.75;2.50;;;;;;;14.06;61.29;98521.16;5069641;28;20048;-69
2021/05/09 05:25:31;;;;;;;3.03;2.00;;;;;;;14.31;60.48;98519.94;5070012;28;20047;-68
2021/05/09 05:27:56;;;;;;;2.35;2.00;;;;;;;14.60;60.42;98519.28;5070378;28;20064;-69
2021/05/09 05:30:21;;;;;;;7.05;2.22;;;;;;;15.00;59.49;98521.13;5070592;28;20108;-69
2021/05/09 05:32:47;;;;;;;3.20;2.00;;;;;;;15.42;58.24;98513.81;5070104;28;20056;-69
2021/05/09 05:35:14;;;;;;;5.05;2.10;;;;;;;15.84;57.34;98500.31;5069122;28;20032;-69
2021/05/09 05:37:40;;;;;;;4.80;2.30;;;;;;;16.18;56.33;98497.19;5070616;28;20024;-71
2021/05/09 05:40:06;;;;;;;3.17;2.20;;;;;;;16.43;55.92;98498.38;5070443;28;20043;-71
2021/05/09 05:42:31;;;;;;;5.53;2.50;;;;;;;16.72;55.76;98498.28;5069040;28;20519;-70
2021/05/09 05:44:57;;;;;;;4.20;2.28;;;;;;;16.92;55.25;98485.75;5070693;28;20044;-70
2021/05/09 05:47:22;;;;;;;4.43;2.30;;;;;;;17.11;54.98;98487.50;5072625;28;20075;-70
2021/05/09 05:49:47;;;;;;;5.55;2.33;;;;;;;17.33;54.78;98496.06;5071858;28;20040;-70
2021/05/09 05:52:13;;;;;;;4.53;2.33;;;;;;;17.51;54.25;98483.59;5070731;28;20096;-70
2021/05/09 05:54:38;;;;;;;5.80;2.20;;;;;;;17.71;54.05;98481.59;5070066;28;20555;-70
2021/05/09 05:57:04;;;;;;;3.78;1.90;;;;;;;18.02;53.16;98482.06;5052091;28;20123;-69
2021/05/09 05:59:29;;;;;;;9.30;2.95;;;;;;;18.29;52.50;98476.75;5059843;28;20096;-70
2021/05/09 06:01:55;;;;;;;2.70;2.15;;;;;;;18.50;51.94;98473.69;5069889;28;20036;-70
2021/05/09 06:04:20;;;;;;;3.28;1.80;;;;;;;18.71;51.48;98470.66;5071181;28;20032;-69
2021/05/09 06:06:45;;;;;;;2.58;1.98;;;;;;;19.06;50.56;98469.66;5063146;28;20041;-70
2021/05/09 06:09:10;;;;;;;3.30;1.95;;;;;;;19.62;48.95;98465.44;5050863;28;20040;-69
2021/05/09 06:11:36;;;;;;;4.32;1.85;;;;;;;20.07;47.79;98460.63;5076956;28;20032;-70
2021/05/09 06:14:01;;;;;;;3.75;2.03;;;;;;;20.53;46.76;98453.66;5090160;28;20048;-70
2021/05/09 06:16:27;;;;;;;3.65;1.92;;;;;;;20.98;47.16;98446.81;5089577;28;20042;-70
2021/05/09 06:18:52;;;;;;;3.80;1.58;;;;;;;21.46;45.01;98441.38;5072483;28;20128;-70
2021/05/09 06:21:18;;;;;;;8.32;3.30;;;;;;;21.47;44.61;98448.41;5089976;28;20049;-68
2021/05/09 06:23:43;;;;;;;2.60;1.88;;;;;;;21.25;44.94;98443.84;5071781;28;20040;-69
2021/05/09 06:26:08;;;;;;;3.72;1.88;;;;;;;21.18;45.24;98449.91;5089723;28;20399;-69
2021/05/09 06:28:34;;;;;;;4.35;2.50;;;;;;;;;;5089607;28;20028;-69
2021/05/09 06:30:59;;;;;;;4.68;2.33;;;;;;;21.72;43.85;98440.19;5089444;28;20036;-70
2021/05/09 06:33:25;;;;;;;4.68;1.85;;;;;;;22.06;43.49;98445.09;5089553;28;20086;-70
2021/05/09 06:35:51;;;;;;;6.90;2.22;;;;;;;22.39;42.32;98437.56;5089931;28;20028;-70
2021/05/09 06:38:16;;;;;;;2.92;1.92;;;;;;;22.60;42.04;98436.84;5090207;28;20035;-70
2021/05/09 06:40:42;;;;;;;2.50;1.95;;;;;;;22.86;41.80;98441.72;5089982;28;20024;-71
2021/05/09 06:43:08;;;;;;;3.40;2.25;;;;;;;23.28;40.96;98442.91;5090040;28;20499;-70
2021/05/09 06:45:35;;;;;;;3.83;2.08;;;;;;;23.41;39.82;98436.00;5090392;28;20039;-70
2021/05/09 06:48:02;;;;;;;7.90;1.95;;;;;;;23.56;39.86;98434.06;5091249;28;20380;-70
2021/05/09 06:50:29;;;;;;;5.70;1.92;;;;;;;24.12;38.87;98427.94;5073796;28;20078;-70
2021/05/09 06:52:56;;;;;;;3.80;2.67;;;;;;;23.99;39.12;98420.59;5089900;28;20029;-70
2021/05/09 06:55:21;;;;;;;4.18;2.20;;;;;;;23.91;39.40;98431.53;5090201;28;20036;-71
2021/05/09 06:57:47;;;;;;;3.22;2.10;;;;;;;23.66;39.47;98431.06;5089566;28;20063;-70
2021/05/09 07:00:14;;;;;;;3.20;2.05;;;;;;;23.77;39.16;98412.53;5073650;28;20037;-70
2021/05/09 07:02:40;;;;;;;3.38;2.05;;;;;;;24.00;38.88;98417.72;5069017;28;20032;-69
2021/05/09 07:05:06;;;;;;;4.47;2.22;;;;;;;24.03;39.17;98410.28;5068788;28;20047;-69
2021/05/09 07:07:31;;;;;;;3.63;2.17;;;;;;;24.21;38.62;98402.53;5054996;28;20025;-69
2021/05/09 07:09:57;;;;;;;3.97;2.60;;;;;;;24.52;38.04;98402.13;5049262;28;20400;-69
2021/05/09 07:12:22;;;;;;;2.75;2.00;;;;;;;24.63;37.82;98398.84;5049351;28;20721;-70
2021/05/09 07:14:48;;;;;;;4.78;2.00;;;;;;;24.80;37.64;98398.53;5055439;28;20039;-70
2021/05/09 07:17:13;;;;;;;7.78;2.88;;;;;;;24.75;37.86;98385.66;5069740;28;20040;-71
2021/05/09 07:19:39;;;;;;;4.65;2.08;;;;;;;24.49;38.01;98383.69;5069691;28;20112;-69
2021/05/09 07:22:12;;;;;;;2.83;2.03;;;;;;;24.49;38.21;98381.00;5069221;28;20055;-69
2021/05/09 07:24:37;;;;;;;3.60;2.28;;;;;;;24.67;38.68;98375.06;5069043;28;20093;-70
2021/05/09 07:27:03;;;;;;;4.00;2.35;;;;;;;24.74;38.37;98372.41;5068788;28;20120;-70
2021/05/09 07:29:28;;;;;;;6.07;3.00;;;;;;;25.07;38.05;98376.00;5069145;28;20052;-70
2021/05/09 07:31:54;;;;;;;4.50;2.47;;;;;;;25.12;37.83;98370.00;5069329;28;20135;-69
2021/05/09 07:34:20;;;;;;;6.80;2.63;;;;;;;25.36;37.09;98363.25;5068391;28;20376;-69
2021/05/09 07:36:46;;;;;;;6.72;2.67;;;;;;;25.63;36.41;98364.09;5068151;28;20395;-69
2021/05/09 07:39:12;;;;;;;2.72;2.00;;;;;;;25.80;36.01;98361.81;5068521;28;20037;-69
2021/05/09 07:41:37;;;;;;;5.43;2.03;;;;;;;25.71;36.05;98357.66;5068771;28;20036;-69
2021/05/09 07:44:04;;;;;;;7.90;2.38;;;;;;;25.59;36.27;98351.22;5068401;28;20044;-70
2021/05/09 07:46:30;;;;;;;4.38;2.35;;;;;;;25.76;35.75;98348.94;5069671;28;20056;-69
2021/05/09 07:48:55;;;;;;;3.08;2.15;;;;;;;25.91;35.41;98346.88;5072202;28;20056;-70
2021/05/09 07:51:21;;;;;;;4.35;2.00;;;;;;;25.98;35.27;98345.00;5072758;28;20036;-69
2021/05/09 07:53:47;;;;;;;5.05;2.30;;;;;;;26.29;34.84;98351.59;5072254;28;20555;-70
2021/05/09 07:56:12;;;;;;;4.70;2.08;;;;;;;26.11;35.17;98333.34;5071495;28;20512;-70
2021/05/09 07:58:38;;;;;;;3.72;2.10;;;;;;;26.18;35.45;98331.44;5072119;28;20051;-70
2021/05/09 08:01:03;;;;;;;4.03;1.77;;;;;;;26.03;35.80;98320.06;5053762;28;20118;-71
2021/05/09 08:03:29;;;;;;;6.22;2.15;;;;;;;25.81;35.93;98316.75;5072259;28;20151;-70
2021/05/09 08:05:54;;;;;;;5.05;3.08;;;;;;;25.73;35.50;98314.28;5072060;28;20064;-71
2021/05/09 08:08:25;;;;;;;3.95;1.90;;;;;;;25.85;35.83;98304.50;5072024;28;20052;-71
2021/05/09 08:10:50;;;;;;;5.25;2.58;;;;;;;25.63;35.74;98301.19;5070906;28;20041;-71
2021/05/09 08:13:15;;;;;;;3.83;2.25;;;;;;;25.76;35.60;98297.66;5071545;28;20435;-70
2021/05/09 08:15:41;;;;;;;2.88;2.15;;;;;;;26.06;35.30;98306.94;5071585;28;20029;-71
2021/05/09 08:18:06;;;;;;;4.30;2.08;;;;;;;26.29;34.75;98295.69;5071897;28;20025;-71
2021/05/09 08:20:32;;;;;;;4.93;2.20;;;;;;;26.40;34.64;98287.94;5071821;28;20059;-70
2021/05/09 08:22:57;;;;;;;3.92;2.20;;;;;;;26.34;35.00;98295.03;5071969;28;20036;-69
2021/05/09 08:25:23;;;;;;;3.45;2.00;;;;;;;26.34;34.56;98301.28;5071996;28;20071;-71
2021/05/09 08:27:50;;;;;;;6.20;2.45;;;;;;;26.06;35.05;98303.44;5072071;28;20091;-70
2021/05/09 08:30:18;;;;;;;6.15;1.95;;;;;;;25.94;34.81;98308.63;5053601;28;20044;-71
2021/05/09 08:32:44;;;;;;;5.13;2.10;;;;;;;26.10;34.77;98304.66;5071698;28;20032;-70
2021/05/09 08:35:11;;;;;;;3.10;1.65;;;;;;;25.92;34.79;98308.88;5072882;28;20449;-69
2021/05/09 08:37:38;;;;;;;3.65;2.00;;;;;;;25.70;34.86;98304.72;5091166;28;20112;-70
2021/05/09 08:40:06;;;;;;;4.90;2.25;;;;;;;25.75;35.55;98296.81;5091556;28;20065;-72
2021/05/09 08:42:31;;;;;;;4.65;2.10;;;;;;;25.99;34.99;98298.06;5091747;28;20036;-70
2021/05/09 08:44:56;;;;;;;5.07;2.30;;;;;;;25.89;34.83;98305.75;5091488;28;20039;-70
2021/05/09 08:47:22;;;;;;;2.47;1.92;;;;;;;25.56;34.31;98294.97;5091754;28;20122;-70
2021/05/09 08:49:49;;;;;;;3.58;2.10;;;;;;;25.54;34.74;98302.44;5090678;28;20059;-70
2021/05/09 08:52:19;;;;;;;5.75;2.15;;;;;;;25.48;35.15;98312.19;5070649;28;20047;-70
2021/05/09 08:54:45;;;;;;;3.83;2.10;;;;;;;25.79;34.00;98300.75;5070973;28;20043;-71
2021/05/09 08:57:11;;;;;;;9.82;2.72;;;;;;;25.59;33.60;98310.72;5071264;28;20515;-71
2021/05/09 08:59:37;;;;;;;2.55;1.98;;;;;;;25.73;33.72;98292.66;5053300;28;20029;-69
2021/05/09 09:02:02;;;;;;;3.30;1.90;;;;;;;26.02;33.33;98281.44;5070350;28;20040;-70
2021/05/09 09:04:43;;;;;;;6.20;2.35;;;;;;;26.10;33.10;98274.97;5070979;28;20036;-69
2021/05/09 09:07:11;;;;;;;4.50;2.15;;;;;;;25.81;33.59;98277.06;5070493;28;20032;-69
2021/05/09 09:09:40;;;;;;;5.22;2.75;;;;;;;25.56;33.95;98273.38;5070865;28;20487;-69
2021/05/09 09:12:06;;;;;;;5.05;2.00;;;;;;;25.41;33.97;98269.03;5070759;28;20044;-70
2021/05/09 09:14:31;;;;;;;3.88;1.92;;;;;;;25.28;34.24;98275.25;5069959;28;20040;-70
2021/05/09 09:17:17;;;;;;;5.70;2.55;;;;;;;25.41;34.19;98269.03;5070381;28;20036;-71
2021/05/09 09:20:00;;;;;;;;;;;;;;;25.48;33.33;98266.34;5070799;28;20032;-70
2021/05/09 09:22:27;;;;;;;2.22;1.90;;;;;;;25.91;33.17;98274.78;5069933;28;20287;-70
2021/05/09 09:25:08;;;;;;;5.90;2.55;;;;;;;26.86;31.91;98259.88;5071260;28;20036;-70
2021/05/09 09:27:42;;;;;;;6.20;3.50;;;;;;;27.60;31.10;98248.28;5069857;28;20050;-72
2021/05/09 09:30:08;;;;;;;4.03;2.38;;;;;;;28.26;30.13;98243.22;5070409;28;20470;-70
2021/05/09 09:32:33;;;;;;;4.78;2.40;;;;;;;28.71;29.49;98245.56;5070176;28;20029;-70
2021/05/09 09:34:59;;;;;;;3.90;2.20;;;;;;;29.27;28.41;98241.59;5069807;28;20540;-71
2021/05/09 09:37:32;;;;;;;3.50;2.47;;;;;;;29.36;28.09;98242.06;5070693;28;20093;-71
2021/05/09 09:40:03;;;;;;;4.35;2.50;;;;;;;29.72;27.57;98237.50;5052197;28;20052;-68
2021/05/09 09:42:37;;;;;;;4.90;2.50;;;;;;;30.14;27.28;98242.75;5070122;28;20506;-70
2021/05/09 09:45:17;;;;;;;4.97;2.38;;;;;;;30.86;26.45;98223.22;5070130;28;20037;-68
2021/05/09 09:47:50;;;;;;;4.93;2.42;;;;;;;31.34;25.68;98226.50;5069869;28;20032;-69
2021/05/09 09:50:35;;;;;;;7.07;2.38;;;;;;;31.97;25.05;98221.72;5069914;28;20438;-70
2021/05/09 09:53:02;;;;;;;3.40;2.42;;;;;;;32.25;24.10;98216.06;5069764;28;20116;-68
2021/05/09 09:55:27;;;;;;;6.13;2.90;;;;;;;32.50;23.45;98210.09;5069118;28;20074;-72
2021/05/09 09:58:04;;;;;;;7.47;2.50;;;;;;;32.62;23.79;98201.78;5070197;28;20037;-69
2021/05/09 10:00:30;;;;;;;4.70;2.13;;;;;;;32.69;23.28;98193.38;5069213;28;20399;-69
2021/05/09 10:02:55;;;;;;;6.05;2.30;;;;;;;33.23;23.15;98206.13;5070050;28;20040;-71
2021/05/09 10:05:21;;;;;;;2.50;1.70;;;;;;;33.24;22.52;98186.75;5069990;28;20033;-70
2021/05/09 10:07:47;;;;;;;4.07;2.10;;;;;;;33.33;21.90;98187.94;5054265;28;20045;-70
2021/05/09 10:10:13;;;;;;;5.60;1.90;;;;;;;33.12;22.38;98191.59;5049087;28;20040;-70
2021/05/09 10:12:39;;;;;;;3.00;2.05;;;;;;;32.91;22.64;98188.69;5049153;28;20494;-69
2021/05/09 10:15:05;;;;;;;17.33;2.97;;;;;;;32.54;23.03;98188.59;5049714;28;20132;-69
2021/05/09 10:17:31;;;;;;;4.05;2.17;;;;;;;31.67;23.92;98188.31;5047946;28;20064;-70
2021/05/09 10:19:57;;;;;;;3.60;1.92;;;;;;;31.01;24.38;98184.56;5049223;28;20061;-69
2021/05/09 10:22:26;;;;;;;4.32;2.00;;;;;;;30.50;25.30;98189.94;5049602;28;20429;-70
2021/05/09 10:24:51;;;;;;;5.60;2.13;;;;;;;29.80;25.75;98207.25;5049551;28;20041;-69
2021/05/09 10:27:17;;;;;;;6.38;2.10;;;;;;;29.29;26.23;98204.19;5048921;28;20520;-70
2021/05/09 10:29:43;;;;;;;5.63;1.90;;;;;;;28.86;27.52;98207.97;5047864;28;20025;-69
2021/05/09 10:32:17;;;;;;;2.92;1.73;;;;;;;28.80;27.41;98208.09;5048661;28;20043;-69
2021/05/09 10:34:56;;;;;;;4.43;2.40;;;;;;;28.51;28.14;98218.72;5048830;28;20078;-69
2021/05/09 10:40:25;;;;;;;5.32;2.22;;;;;;;28.08;29.42;98216.94;5049279;28;20076;-69
2021/05/09 10:43:07;;;;;;;3.00;2.25;;;;;;;28.02;29.60;98217.84;5048754;28;20035;-70
2021/05/09 10:45:33;;;;;;;4.15;2.53;;;;;;;27.56;30.46;98236.22;5048615;28;20040;-70
2021/05/09 10:48:14;;;;;;;6.47;2.53;;;;;;;27.83;30.27;98238.69;5048760;28;20559;-70
2021/05/09 10:50:43;;;;;;;4.00;2.15;;;;;;;27.83;30.11;98236.81;5049223;28;20401;-70
2021/05/09 10:53:10;;;;;;;8.88;2.50;;;;;;;28.16;29.72;98243.75;5048688;28;20037;-71
2021/05/09 10:55:35;;;;;;;5.20;2.70;;;;;;;28.18;29.57;98241.66;5048400;28;20451;-70
2021/05/09 10:58:01;;;;;;;4.22;2.22;;;;;;;28.34;29.66;98226.63;5048359;28;20037;-71
2021/05/09 11:00:27;;;;;;;5.18;2.80;;;;;;;28.02;30.34;98234.13;5051900;28;20094;-71
2021/05/09 11:02:52;;;;;;;6.35;2.40;;;;;;;27.92;30.24;98231.94;5047092;28;20041;-69
2021/05/09 11:05:20;;;;;;;3.33;2.20;;;;;;;27.83;30.72;98227.84;5048780;28;20048;-69
2021/05/09 11:07:45;;;;;;;3.22;2.08;;;;;;;27.46;31.06;98221.53;5067750;28;20054;-70
2021/05/09 11:10:29;;;;;;;4.00;2.33;;;;;;;27.47;31.23;98229.47;5067298;28;20037;-71
2021/05/09 11:13:02;;;;;;;5.13;2.17;;;;;;;27.47;31.35;98225.91;5068952;28;20460;-70
2021/05/09 11:15:27;;;;;;;11.70;3.50;;;;;;;27.21;31.72;98227.81;5067900;28;20059;-69
2021/05/09 11:17:55;;;;;;;8.43;2.25;;;;;;;27.15;31.49;98215.16;5069313;28;20056;-71
2021/05/09 11:20:20;;;;;;;4.88;2.72;;;;;;;27.25;31.89;98206.56;5070231;28;20024;-70
2021/05/09 11:22:46;;;;;;;9.82;2.65;;;;;;;27.32;31.82;98205.44;5072143;28;20058;-69
2021/05/09 11:25:11;;;;;;;3.95;1.95;;;;;;;27.26;32.03;98210.91;5072060;28;20067;-71
2021/05/09 11:27:45;;;;;;;3.30;2.00;;;;;;;27.43;31.92;98213.88;5072711;28;20051;-69
2021/05/09 11:30:11;;;;;;;3.00;2.10;;;;;;;27.48;31.89;98212.16;5072700;28;20032;-69
2021/05/09 11:32:37;;;;;;;5.68;2.15;;;;;;;27.19;31.96;98211.78;5072492;28;20324;-69
2021/05/09 11:35:03;;;;;;;4.13;2.30;;;;;;;27.27;32.36;98215.25;5072350;28;20044;-69